createdAt,value
2023-03-24T00:00:22.268Z,9.719110
2023-03-24T00:01:22.242Z,9.719123
2023-03-24T00:02:22.277Z,9.719082
2023-03-24T00:03:22.356Z,9.719099
2023-03-24T00:04:22.248Z,9.719055
2023-03-24T00:05:22.230Z,9.719058
2023-03-24T00:06:22.182Z,9.719118
2023-03-24T00:07:22.184Z,9.718989
2023-03-24T00:08:22.175Z,9.719025
2023-03-24T00:09:22.150Z,9.719096
2023-03-24T00:10:22.157Z,9.719097
2023-03-24T00:11:22.161Z,9.719017
2023-03-24T00:12:22.125Z,9.719030
2023-03-24T00:13:22.113Z,9.719098
2023-03-24T00:14:22.140Z,9.719007
2023-03-24T00:15:22.110Z,9.719081
2023-03-24T00:16:22.325Z,9.719010
2023-03-24T00:17:22.083Z,9.719011
2023-03-24T00:18:22.066Z,9.719228
2023-03-24T00:19:22.090Z,9.718957
2023-03-24T00:20:32.579Z,9.719034
2023-03-24T00:21:21.989Z,9.718996
2023-03-24T00:22:22.048Z,9.718986
2023-03-24T00:23:22.001Z,9.718914
2023-03-24T00:24:22.001Z,9.718953
2023-03-24T00:25:21.945Z,9.719073
2023-03-24T00:26:21.979Z,9.718962
2023-03-24T00:27:21.964Z,9.718905
2023-03-24T00:28:21.952Z,9.719128
2023-03-24T00:29:21.972Z,9.719094
2023-03-24T00:30:21.903Z,9.718433
2023-03-24T00:31:21.991Z,9.718655
2023-03-24T00:32:21.871Z,9.718923
2023-03-24T00:33:21.872Z,9.718929
2023-03-24T00:34:21.922Z,9.719034
2023-03-24T00:35:21.915Z,9.719056
2023-03-24T00:36:21.886Z,9.718920
2023-03-24T00:37:21.861Z,9.718922
2023-03-24T00:38:21.871Z,9.718924
2023-03-24T00:39:21.842Z,9.718998
2023-03-24T00:40:21.845Z,9.719094
2023-03-24T00:41:21.810Z,9.719046
2023-03-24T00:42:21.828Z,9.719060
2023-03-24T00:43:21.788Z,9.719060
2023-03-24T00:44:21.750Z,9.719006
2023-03-24T00:45:21.754Z,9.719072
2023-03-24T00:46:21.825Z,9.719123
2023-03-24T00:47:21.759Z,9.719099
2023-03-24T00:48:21.804Z,9.719172
2023-03-24T00:49:21.737Z,9.719204
2023-03-24T00:50:21.736Z,9.719197
2023-03-24T00:51:21.722Z,9.719177
2023-03-24T00:52:21.757Z,9.719208
2023-03-24T00:53:21.707Z,9.719148
2023-03-24T00:54:21.692Z,9.719132
2023-03-24T00:55:21.821Z,9.719151
2023-03-24T00:56:21.675Z,9.719089
2023-03-24T00:57:21.736Z,9.719176
2023-03-24T00:58:21.641Z,9.719223
2023-03-24T00:59:21.684Z,9.719305
2023-03-24T01:00:21.627Z,9.719293
2023-03-24T01:01:21.640Z,9.719335
2023-03-24T01:02:21.673Z,9.719295
2023-03-24T01:03:21.586Z,9.719177
2023-03-24T01:04:21.558Z,9.719220
2023-03-24T01:05:21.582Z,9.719267
2023-03-24T01:06:21.562Z,9.719282
2023-03-24T01:07:21.555Z,9.719186
2023-03-24T01:08:21.572Z,9.719280
2023-03-24T01:09:21.530Z,9.719235
2023-03-24T01:10:21.559Z,9.719196
2023-03-24T01:11:21.509Z,9.719059
2023-03-24T01:12:21.495Z,9.719121
2023-03-24T01:13:21.494Z,9.719192
2023-03-24T01:14:21.483Z,9.719118
2023-03-24T01:15:21.475Z,9.719057
2023-03-24T01:16:21.479Z,9.719156
2023-03-24T01:17:21.461Z,9.719155
2023-03-24T01:18:21.477Z,9.719186
2023-03-24T01:19:21.432Z,9.719164
2023-03-24T01:20:21.395Z,9.719156
2023-03-24T01:21:21.423Z,9.719189
2023-03-24T01:22:21.437Z,9.719239
2023-03-24T01:23:21.429Z,9.719355
2023-03-24T01:24:21.353Z,9.719357
2023-03-24T01:25:21.392Z,9.719304
2023-03-24T01:26:21.352Z,9.719378
2023-03-24T01:27:21.388Z,9.719240
2023-03-24T01:28:21.373Z,9.719289
2023-03-24T01:29:21.320Z,9.719051
2023-03-24T01:30:21.359Z,9.718829
2023-03-24T01:31:21.346Z,9.718592
2023-03-24T01:32:21.317Z,9.718451
2023-03-24T01:33:21.314Z,9.718610
2023-03-24T01:34:22.268Z,9.718742
2023-03-24T01:35:21.275Z,9.718781
2023-03-24T01:36:21.288Z,9.718830
2023-03-24T01:37:21.233Z,9.718830
2023-03-24T01:38:21.271Z,9.718882
2023-03-24T01:39:21.261Z,9.719125
2023-03-24T01:40:21.222Z,9.719380
2023-03-24T01:41:21.247Z,9.719447
2023-03-24T01:42:21.212Z,9.719365
2023-03-24T01:43:21.184Z,9.719249
2023-03-24T01:44:21.179Z,9.719275
2023-03-24T01:45:21.228Z,9.719153
2023-03-24T01:46:21.273Z,9.719130
2023-03-24T01:47:21.156Z,9.719101
2023-03-24T01:48:21.152Z,9.719144
2023-03-24T01:49:21.139Z,9.719235
2023-03-24T01:50:21.134Z,9.719165
2023-03-24T01:51:21.136Z,9.719066
2023-03-24T01:52:21.186Z,9.719179
2023-03-24T01:53:21.112Z,9.719145
2023-03-24T01:54:21.099Z,9.719068
2023-03-24T01:55:21.061Z,9.719171
2023-03-24T01:56:21.048Z,9.719076
2023-03-24T01:57:22.058Z,9.719070
2023-03-24T01:58:21.077Z,9.719099
2023-03-24T01:59:21.034Z,9.719367
2023-03-24T02:00:21.040Z,9.719168
2023-03-24T02:01:52.932Z,9.719259
2023-03-24T02:02:21.032Z,9.719311
2023-03-24T02:03:21.070Z,9.719183
2023-03-24T02:04:21.030Z,9.719276
2023-03-24T02:05:20.999Z,9.719404
2023-03-24T02:06:20.958Z,9.719347
2023-03-24T02:07:21.037Z,9.719246
2023-03-24T02:08:20.942Z,9.719110
2023-03-24T02:09:20.988Z,9.719267
2023-03-24T02:10:20.949Z,9.719132
2023-03-24T02:11:20.924Z,9.719072
2023-03-24T02:12:20.908Z,9.719666
2023-03-24T02:13:20.894Z,9.718497
2023-03-24T02:14:20.918Z,9.719166
2023-03-24T02:15:20.880Z,9.719267
2023-03-24T02:16:20.902Z,9.719284
2023-03-24T02:17:20.846Z,9.719137
2023-03-24T02:18:20.863Z,9.719872
2023-03-24T02:19:21.618Z,9.719404
2023-03-24T02:20:20.831Z,9.719287
2023-03-24T02:21:20.816Z,9.719184
2023-03-24T02:22:20.798Z,9.719139
2023-03-24T02:23:20.817Z,9.719212
2023-03-24T02:24:20.810Z,9.719257
2023-03-24T02:25:20.777Z,9.719205
2023-03-24T02:26:20.775Z,9.719236
2023-03-24T02:27:20.746Z,9.718884
2023-03-24T02:28:20.726Z,9.719138
2023-03-24T02:29:20.796Z,9.719334
2023-03-24T02:30:20.710Z,9.719161
2023-03-24T02:31:20.788Z,9.719239
2023-03-24T02:32:20.710Z,9.719257
2023-03-24T02:33:20.720Z,9.719166
2023-03-24T02:34:20.691Z,9.719128
2023-03-24T02:35:20.755Z,9.719179
2023-03-24T02:36:20.720Z,9.719172
2023-03-24T02:37:20.670Z,9.719230
2023-03-24T02:38:20.698Z,9.719202
2023-03-24T02:39:20.644Z,9.719291
2023-03-24T02:40:20.623Z,9.719044
2023-03-24T02:41:20.630Z,9.719202
2023-03-24T02:42:20.635Z,9.719294
2023-03-24T02:43:20.629Z,9.719267
2023-03-24T02:44:20.576Z,9.719255
2023-03-24T02:45:20.593Z,9.719070
2023-03-24T02:46:20.586Z,9.719226
2023-03-24T02:47:20.606Z,9.719371
2023-03-24T02:48:20.622Z,9.719343
2023-03-24T02:49:20.518Z,9.719268
2023-03-24T02:50:20.585Z,9.719448
2023-03-24T02:51:20.529Z,9.719490
2023-03-24T02:52:20.511Z,9.719320
2023-03-24T02:53:20.515Z,9.719322
2023-03-24T02:54:20.493Z,9.719154
2023-03-24T02:55:20.489Z,9.719039
2023-03-24T02:56:20.496Z,9.719285
2023-03-24T02:57:20.507Z,9.719531
2023-03-24T02:58:20.458Z,9.719700
2023-03-24T02:59:20.432Z,9.719832
2023-03-24T03:00:20.547Z,9.719560
2023-03-24T03:01:20.439Z,9.719131
2023-03-24T03:02:20.496Z,9.718505
2023-03-24T03:03:20.460Z,9.719318
2023-03-24T03:04:20.435Z,9.719459
2023-03-24T03:05:20.386Z,9.719515
2023-03-24T03:06:20.416Z,9.719652
2023-03-24T03:07:20.441Z,9.719869
2023-03-24T03:08:20.341Z,9.719687
2023-03-24T03:09:20.396Z,9.719378
2023-03-24T03:10:20.336Z,9.719296
2023-03-24T03:11:20.395Z,9.719311
2023-03-24T03:12:20.321Z,9.719340
2023-03-24T03:13:20.293Z,9.719197
2023-03-24T03:14:20.283Z,9.719141
2023-03-24T03:15:20.332Z,9.719146
2023-03-24T03:16:20.380Z,9.719157
2023-03-24T03:17:20.289Z,9.719155
2023-03-24T03:18:20.254Z,9.719214
2023-03-24T03:19:20.247Z,9.719468
2023-03-24T03:20:20.330Z,9.719516
2023-03-24T03:21:20.223Z,9.719429
2023-03-24T03:22:20.218Z,9.719339
2023-03-24T03:23:20.216Z,9.719224
2023-03-24T03:24:20.223Z,9.719278
2023-03-24T03:25:20.185Z,9.719108
2023-03-24T03:26:20.185Z,9.719168
2023-03-24T03:27:20.177Z,9.719265
2023-03-24T03:28:20.146Z,9.719213
2023-03-24T03:29:20.165Z,9.719114
2023-03-24T03:30:20.150Z,9.719202
2023-03-24T03:31:20.177Z,9.719264
2023-03-24T03:32:20.097Z,9.719163
2023-03-24T03:33:20.110Z,9.719273
2023-03-24T03:34:20.087Z,9.719218
2023-03-24T03:35:20.110Z,9.719188
2023-03-24T03:36:20.073Z,9.719218
2023-03-24T03:37:20.080Z,9.719276
2023-03-24T03:38:20.073Z,9.719266
2023-03-24T03:39:20.101Z,9.719197
2023-03-24T03:40:20.055Z,9.719302
2023-03-24T03:41:20.035Z,9.719154
2023-03-24T03:42:20.050Z,9.719151
2023-03-24T03:43:20.017Z,9.719142
2023-03-24T03:44:19.990Z,9.719218
2023-03-24T03:45:20.001Z,9.719292
2023-03-24T03:46:20.069Z,9.719214
2023-03-24T03:47:20.056Z,9.719280
2023-03-24T03:48:19.984Z,9.719226
2023-03-24T03:49:19.950Z,9.719286
2023-03-24T03:50:19.962Z,9.719143
2023-03-24T03:51:19.953Z,9.719071
2023-03-24T03:52:19.948Z,9.719206
2023-03-24T03:53:19.974Z,9.719124
2023-03-24T03:54:19.894Z,9.719131
2023-03-24T03:55:19.966Z,9.719376
2023-03-24T03:56:19.897Z,9.719480
2023-03-24T03:57:19.900Z,9.719370
2023-03-24T03:58:19.898Z,9.719430
2023-03-24T03:59:19.865Z,9.719311
2023-03-24T04:00:19.865Z,9.719300
2023-03-24T04:01:19.858Z,9.719271
2023-03-24T04:02:19.834Z,9.719447
2023-03-24T04:03:19.931Z,9.719230
2023-03-24T04:04:19.854Z,9.719257
2023-03-24T04:05:19.852Z,9.719251
2023-03-24T04:06:19.833Z,9.719350
2023-03-24T04:07:19.819Z,9.719348
2023-03-24T04:08:19.833Z,9.719256
2023-03-24T04:09:19.779Z,9.719215
2023-03-24T04:10:19.728Z,9.719012
2023-03-24T04:11:19.760Z,9.719123
2023-03-24T04:12:19.699Z,9.719154
2023-03-24T04:13:19.703Z,9.719136
2023-03-24T04:14:19.713Z,9.719130
2023-03-24T04:15:19.681Z,9.719193
2023-03-24T04:16:19.721Z,9.719086
2023-03-24T04:17:19.697Z,9.719120
2023-03-24T04:18:19.664Z,9.719090
2023-03-24T04:19:19.670Z,9.719070
2023-03-24T04:20:19.642Z,9.719087
2023-03-24T04:21:19.665Z,9.719093
2023-03-24T04:22:19.634Z,9.719131
2023-03-24T04:23:19.627Z,9.719061
2023-03-24T04:24:19.611Z,9.719084
2023-03-24T04:25:19.633Z,9.719023
2023-03-24T04:26:19.568Z,9.719066
2023-03-24T04:27:19.642Z,9.719136
2023-03-24T04:28:19.566Z,9.719088
2023-03-24T04:29:19.583Z,9.719084
2023-03-24T04:30:19.584Z,9.719076
2023-03-24T04:31:19.589Z,9.719047
2023-03-24T04:32:19.515Z,9.719075
2023-03-24T04:33:20.535Z,9.719103
2023-03-24T04:34:19.524Z,9.719114
2023-03-24T04:35:19.515Z,9.719108
2023-03-24T04:36:19.510Z,9.719136
2023-03-24T04:37:19.471Z,9.719132
2023-03-24T04:38:19.501Z,9.719079
2023-03-24T04:39:19.451Z,9.719093
2023-03-24T04:40:19.473Z,9.719168
2023-03-24T04:41:19.466Z,9.719127
2023-03-24T04:42:19.430Z,9.719138
2023-03-24T04:43:19.405Z,9.719085
2023-03-24T04:44:19.461Z,9.719116
2023-03-24T04:45:19.412Z,9.719113
2023-03-24T04:46:19.451Z,9.719156
2023-03-24T04:47:19.378Z,9.719059
2023-03-24T04:48:19.381Z,9.719132
2023-03-24T04:49:19.422Z,9.719122
2023-03-24T04:50:19.325Z,9.719160
2023-03-24T04:51:19.344Z,9.719150
2023-03-24T04:52:19.367Z,9.719189
2023-03-24T04:53:19.298Z,9.719179
2023-03-24T04:54:19.338Z,9.719098
2023-03-24T04:55:19.281Z,9.719176
2023-03-24T04:56:19.289Z,9.719152
2023-03-24T04:57:19.285Z,9.719120
2023-03-24T04:58:19.263Z,9.719090
2023-03-24T04:59:19.297Z,9.719081
2023-03-24T05:00:19.234Z,9.719116
2023-03-24T05:01:19.263Z,9.719120
2023-03-24T05:02:21.581Z,9.719168
2023-03-24T05:03:19.252Z,9.719068
2023-03-24T05:04:20.266Z,9.719061
2023-03-24T05:05:19.182Z,9.719119
2023-03-24T05:06:19.208Z,9.719073
2023-03-24T05:07:19.171Z,9.719066
2023-03-24T05:08:19.182Z,9.719083
2023-03-24T05:09:19.189Z,9.719202
2023-03-24T05:10:21.755Z,9.719095
2023-03-24T05:11:19.160Z,9.719107
2023-03-24T05:12:19.122Z,9.719121
2023-03-24T05:13:19.179Z,9.719232
2023-03-24T05:14:20.124Z,9.719369
2023-03-24T05:15:19.081Z,9.719378
2023-03-24T05:16:19.130Z,9.719125
2023-03-24T05:17:19.079Z,9.719124
2023-03-24T05:18:19.101Z,9.719076
2023-03-24T05:19:19.062Z,9.719179
2023-03-24T05:20:19.038Z,9.719301
2023-03-24T05:21:19.070Z,9.719399
2023-03-24T05:22:19.012Z,9.719309
2023-03-24T05:23:19.011Z,9.719197
2023-03-24T05:24:19.023Z,9.719201
2023-03-24T05:25:18.988Z,9.719151
2023-03-24T05:26:18.993Z,9.719351
2023-03-24T05:27:19.004Z,9.719255
2023-03-24T05:28:18.985Z,9.719241
2023-03-24T05:29:18.946Z,9.719152
2023-03-24T05:30:18.957Z,9.719206
2023-03-24T05:31:18.971Z,9.719426
2023-03-24T05:32:18.933Z,9.719377
2023-03-24T05:33:18.930Z,9.719237
2023-03-24T05:34:18.930Z,9.719191
2023-03-24T05:35:19.952Z,9.719253
2023-03-24T05:36:18.954Z,9.719193
2023-03-24T05:37:18.881Z,9.719210
2023-03-24T05:38:18.915Z,9.719309
2023-03-24T05:39:18.842Z,9.719344
2023-03-24T05:40:18.924Z,9.719189
2023-03-24T05:41:18.841Z,9.719172
2023-03-24T05:42:18.866Z,9.719310
2023-03-24T05:43:18.825Z,9.719314
2023-03-24T05:44:18.839Z,9.719184
2023-03-24T05:45:18.822Z,9.719234
2023-03-24T05:46:18.853Z,9.719130
2023-03-24T05:47:18.781Z,9.719132
2023-03-24T05:48:18.791Z,9.719257
2023-03-24T05:49:18.784Z,9.719313
2023-03-24T05:50:18.749Z,9.719360
2023-03-24T05:51:18.776Z,9.719259
2023-03-24T05:52:18.728Z,9.719398
2023-03-24T05:53:18.727Z,9.719464
2023-03-24T05:54:18.732Z,9.719417
2023-03-24T05:55:18.714Z,9.719443
2023-03-24T05:56:18.676Z,9.719393
2023-03-24T05:57:18.672Z,9.719469
2023-03-24T05:58:18.643Z,9.719391
2023-03-24T05:59:18.689Z,9.719432
2023-03-24T06:00:18.657Z,9.719499
2023-03-24T06:01:18.639Z,9.719520
2023-03-24T06:02:18.665Z,9.719485
2023-03-24T06:03:18.783Z,9.719462
2023-03-24T06:04:18.620Z,9.719414
2023-03-24T06:05:18.591Z,9.719502
2023-03-24T06:06:18.651Z,9.719450
2023-03-24T06:07:18.574Z,9.719417
2023-03-24T06:08:18.604Z,9.719415
2023-03-24T06:09:18.568Z,9.719482
2023-03-24T06:10:18.564Z,9.719431
2023-03-24T06:11:18.557Z,9.719400
2023-03-24T06:12:18.538Z,9.719401
2023-03-24T06:13:18.525Z,9.719425
2023-03-24T06:14:18.524Z,9.719449
2023-03-24T06:15:18.507Z,9.719373
2023-03-24T06:16:18.494Z,9.719360
2023-03-24T06:17:18.503Z,9.719342
2023-03-24T06:18:18.534Z,9.719354
2023-03-24T06:19:18.471Z,9.719383
2023-03-24T06:20:18.436Z,9.719332
2023-03-24T06:21:18.437Z,9.719285
2023-03-24T06:22:18.533Z,9.719233
2023-03-24T06:23:18.461Z,9.719146
2023-03-24T06:24:18.450Z,9.719148
2023-03-24T06:25:18.418Z,9.719304
2023-03-24T06:26:18.383Z,9.719285
2023-03-24T06:27:18.393Z,9.719361
2023-03-24T06:28:18.377Z,9.719217
2023-03-24T06:29:18.458Z,9.719345
2023-03-24T06:30:18.372Z,9.719380
2023-03-24T06:31:18.482Z,9.719073
2023-03-24T06:32:18.396Z,9.718830
2023-03-24T06:33:18.368Z,9.718842
2023-03-24T06:34:18.481Z,9.718901
2023-03-24T06:35:18.289Z,9.719044
2023-03-24T06:36:18.268Z,9.718903
2023-03-24T06:37:18.292Z,9.718730
2023-03-24T06:38:18.290Z,9.718438
2023-03-24T06:39:18.279Z,9.718993
2023-03-24T06:40:18.283Z,9.719435
2023-03-24T06:41:18.237Z,9.719338
2023-03-24T06:42:18.223Z,9.719259
2023-03-24T06:43:18.228Z,9.719177
2023-03-24T06:44:18.231Z,9.719272
2023-03-24T06:45:18.205Z,9.719176
2023-03-24T06:46:18.278Z,9.719282
2023-03-24T06:47:18.229Z,9.719115
2023-03-24T06:48:18.159Z,9.719254
2023-03-24T06:49:18.203Z,9.719362
2023-03-24T06:50:18.199Z,9.719192
2023-03-24T06:51:18.165Z,9.719228
2023-03-24T06:52:18.133Z,9.719024
2023-03-24T06:53:18.119Z,9.718664
2023-03-24T06:54:18.142Z,9.718654
2023-03-24T06:55:18.110Z,9.718999
2023-03-24T06:56:18.141Z,9.718954
2023-03-24T06:57:18.057Z,9.719150
2023-03-24T06:58:18.087Z,9.719145
2023-03-24T06:59:18.071Z,9.719124
2023-03-24T07:00:18.028Z,9.719220
2023-03-24T07:01:18.098Z,9.719270
2023-03-24T07:02:18.033Z,9.719182
2023-03-24T07:03:18.079Z,9.719018
2023-03-24T07:04:18.065Z,9.719119
2023-03-24T07:05:18.004Z,9.719227
2023-03-24T07:06:17.996Z,9.719408
2023-03-24T07:07:44.824Z,9.719403
2023-03-24T07:08:36.487Z,9.719313
2023-03-24T07:09:19.958Z,9.719282
2023-03-24T07:10:17.938Z,9.719253
2023-03-24T07:11:17.938Z,9.719289
2023-03-24T07:12:17.967Z,9.719238
2023-03-24T07:13:17.907Z,9.719288
2023-03-24T07:14:17.910Z,9.719309
2023-03-24T07:15:17.912Z,9.719357
2023-03-24T07:16:17.910Z,9.719360
2023-03-24T07:17:17.958Z,9.719337
2023-03-24T07:18:17.917Z,9.719337
2023-03-24T07:19:17.852Z,9.719345
2023-03-24T07:20:17.835Z,9.719370
2023-03-24T07:21:17.829Z,9.719296
2023-03-24T07:22:17.848Z,9.719292
2023-03-24T07:23:17.822Z,9.719268
2023-03-24T07:24:17.800Z,9.719346
2023-03-24T07:25:17.811Z,9.719322
2023-03-24T07:26:17.786Z,9.719305
2023-03-24T07:27:17.755Z,9.719285
2023-03-24T07:28:17.799Z,9.719191
2023-03-24T07:29:17.756Z,9.719249
2023-03-24T07:30:20.570Z,9.719378
2023-03-24T07:31:17.792Z,9.719318
2023-03-24T07:32:17.724Z,9.719285
2023-03-24T07:33:17.785Z,9.719228
2023-03-24T07:34:17.686Z,9.719266
2023-03-24T07:35:17.710Z,9.719261
2023-03-24T07:36:17.730Z,9.719247
2023-03-24T07:37:17.712Z,9.719080
2023-03-24T07:38:17.687Z,9.719003
2023-03-24T07:39:17.634Z,9.719175
2023-03-24T07:40:17.674Z,9.719242
2023-03-24T07:41:17.632Z,9.719243
2023-03-24T07:42:17.677Z,9.719517
2023-03-24T07:43:17.666Z,9.719526
2023-03-24T07:44:17.593Z,9.719620
2023-03-24T07:45:17.613Z,9.719649
2023-03-24T07:46:17.686Z,9.719638
2023-03-24T07:47:18.589Z,9.719481
2023-03-24T07:48:17.581Z,9.719464
2023-03-24T07:49:19.928Z,9.719617
2023-03-24T07:50:18.557Z,9.719791
2023-03-24T07:51:17.528Z,9.719481
2023-03-24T07:52:17.581Z,9.719700
2023-03-24T07:53:17.532Z,9.719349
2023-03-24T07:54:17.544Z,9.719431
2023-03-24T07:55:17.550Z,9.719331
2023-03-24T07:56:17.532Z,9.719303
2023-03-24T07:57:17.587Z,9.719351
2023-03-24T07:58:17.890Z,9.719350
2023-03-24T07:59:17.518Z,9.719181
2023-03-24T08:00:17.437Z,9.718974
2023-03-24T08:12:45.790Z,9.718184
2023-03-24T08:13:45.799Z,9.718772
2023-03-24T08:14:45.787Z,9.718607
2023-03-24T08:15:46.011Z,9.718189
2023-03-24T08:16:45.757Z,9.718521
2023-03-24T08:17:45.741Z,9.718989
2023-03-24T08:18:45.712Z,9.718933
2023-03-24T08:19:58.506Z,9.718848
2023-03-24T08:20:47.743Z,9.718328
2023-03-24T08:21:45.687Z,9.718383
2023-03-24T08:22:45.664Z,9.718551
2023-03-24T08:23:45.676Z,9.718518
2023-03-24T08:24:45.649Z,9.718321
2023-03-24T08:25:45.977Z,9.718597
2023-03-24T08:26:45.653Z,9.718664
2023-03-24T08:27:45.652Z,9.718701
2023-03-24T08:28:45.592Z,9.718701
2023-03-24T08:29:45.626Z,9.717923
2023-03-24T08:30:45.688Z,9.718240
2023-03-24T08:31:45.637Z,9.718435
2023-03-24T08:32:45.609Z,9.718623
2023-03-24T08:33:45.579Z,9.718427
2023-03-24T08:34:45.544Z,9.717998
2023-03-24T08:35:45.786Z,9.717936
2023-03-24T08:36:45.542Z,9.718871
2023-03-24T08:37:45.509Z,9.718590
2023-03-24T08:38:45.535Z,9.718337
2023-03-24T08:39:45.512Z,9.718337
2023-03-24T08:40:45.516Z,9.718337
2023-03-24T08:41:45.506Z,9.718337
2023-03-24T08:42:45.539Z,9.718337
2023-03-24T08:43:45.486Z,9.718337
2023-03-24T08:44:45.449Z,9.718337
2023-03-24T08:45:45.556Z,9.718337
2023-03-24T08:46:45.481Z,9.718337
2023-03-24T08:47:45.437Z,9.718337
2023-03-24T08:48:45.415Z,9.718337
2023-03-24T08:49:45.441Z,9.718337
2023-03-24T08:50:45.397Z,9.718337
2023-03-24T08:51:45.551Z,9.719410
2023-03-24T08:52:45.413Z,9.719183
2023-03-24T08:53:45.373Z,9.719123
2023-03-24T08:54:45.379Z,9.719026
2023-03-24T08:55:45.685Z,9.719279
2023-03-24T08:56:45.358Z,9.719194
2023-03-24T08:57:45.303Z,9.719160
2023-03-24T08:58:45.342Z,9.719150
2023-03-24T08:59:45.313Z,9.719228
2023-03-24T09:00:45.342Z,9.719035
2023-03-24T09:01:45.309Z,9.719110
2023-03-24T09:02:45.313Z,9.719022
2023-03-24T09:03:45.279Z,9.719169
2023-03-24T09:04:45.265Z,9.719185
2023-03-24T09:05:45.288Z,9.719177
2023-03-24T09:06:45.249Z,9.719027
2023-03-24T09:07:45.215Z,9.719049
2023-03-24T09:08:45.224Z,9.719087
2023-03-24T09:09:45.201Z,9.719233
2023-03-24T09:10:45.204Z,9.719248
2023-03-24T09:11:45.235Z,9.719221
2023-03-24T09:12:45.184Z,9.719234
2023-03-24T09:13:45.153Z,9.719398
2023-03-24T09:14:45.151Z,9.719269
2023-03-24T09:15:45.293Z,9.719209
2023-03-24T09:16:46.153Z,9.719106
2023-03-24T09:17:45.172Z,9.719063
2023-03-24T09:18:45.177Z,9.719201
2023-03-24T09:19:45.150Z,9.719162
2023-03-24T09:20:45.124Z,9.718863
2023-03-24T09:21:45.090Z,9.718998
2023-03-24T09:22:45.139Z,9.719067
2023-03-24T09:23:45.109Z,9.719116
2023-03-24T09:24:45.061Z,9.719086
2023-03-24T09:25:45.096Z,9.719049
2023-03-24T09:26:45.070Z,9.719031
2023-03-24T09:27:45.107Z,9.719197
2023-03-24T09:28:45.087Z,9.719509
2023-03-24T09:29:48.135Z,9.719378
2023-03-24T09:30:45.077Z,9.719390
2023-03-24T09:31:45.088Z,9.719262
2023-03-24T09:32:45.090Z,9.719292
2023-03-24T09:33:44.964Z,9.719249
2023-03-24T09:34:44.981Z,9.719022
2023-03-24T09:35:45.037Z,9.719021
2023-03-24T09:36:45.046Z,9.719124
2023-03-24T09:37:45.035Z,9.719366
2023-03-24T09:38:44.935Z,9.719286
2023-03-24T09:39:44.911Z,9.719179
2023-03-24T09:40:44.875Z,9.719259
2023-03-24T09:41:44.927Z,9.719246
2023-03-24T09:42:46.599Z,9.718809
2023-03-24T09:43:44.914Z,9.719171
2023-03-24T09:44:44.869Z,9.719151
2023-03-24T09:45:44.864Z,9.718865
2023-03-24T09:46:44.877Z,9.719226
2023-03-24T09:47:44.841Z,9.718617
2023-03-24T09:48:44.872Z,9.718659
2023-03-24T09:49:44.829Z,9.718943
2023-03-24T09:50:44.815Z,9.718892
2023-03-24T09:51:44.817Z,9.718998
2023-03-24T09:52:44.887Z,9.719120
2023-03-24T09:53:44.784Z,9.719415
2023-03-24T09:54:44.836Z,9.719164
2023-03-24T09:55:44.770Z,9.719249
2023-03-24T09:56:44.780Z,9.719395
2023-03-24T09:57:44.748Z,9.719309
2023-03-24T09:58:44.734Z,9.718620
2023-03-24T09:59:44.725Z,9.719013
2023-03-24T10:00:44.735Z,9.718993
2023-03-24T10:01:44.722Z,9.719189
2023-03-24T10:02:44.792Z,9.719199
2023-03-24T10:03:44.828Z,9.719645
2023-03-24T10:04:44.740Z,9.719043
2023-03-24T10:05:44.632Z,9.719278
2023-03-24T10:06:44.729Z,9.719300
2023-03-24T10:07:44.640Z,9.718996
2023-03-24T10:08:44.664Z,9.719056
2023-03-24T10:09:44.642Z,9.719340
2023-03-24T10:10:44.609Z,9.719240
2023-03-24T10:11:44.641Z,9.719299
2023-03-24T10:12:44.584Z,9.719716
2023-03-24T10:13:44.592Z,9.719497
2023-03-24T10:14:44.622Z,9.719100
2023-03-24T10:15:44.580Z,9.718596
2023-03-24T10:16:44.562Z,9.718770
2023-03-24T10:17:44.667Z,9.719187
2023-03-24T10:18:44.545Z,9.719047
2023-03-24T10:19:44.531Z,9.719033
2023-03-24T10:20:44.563Z,9.718904
2023-03-24T10:21:44.565Z,9.718895
2023-03-24T10:22:44.521Z,9.718876
2023-03-24T10:23:44.511Z,9.719161
2023-03-24T10:24:44.500Z,9.719309
2023-03-24T10:25:44.488Z,9.718851
2023-03-24T10:26:44.486Z,9.718846
2023-03-24T10:27:44.472Z,9.719417
2023-03-24T10:28:44.445Z,9.719292
2023-03-24T10:29:44.424Z,9.719301
2023-03-24T10:30:45.328Z,9.719238
2023-03-24T10:31:45.568Z,9.719480
2023-03-24T10:32:44.428Z,9.719404
2023-03-24T10:33:44.400Z,9.719318
2023-03-24T10:34:44.365Z,9.719360
2023-03-24T10:35:44.382Z,9.719277
2023-03-24T10:36:44.390Z,9.719254
2023-03-24T10:37:44.360Z,9.719131
2023-03-24T10:38:44.370Z,9.719493
2023-03-24T10:39:45.269Z,9.719506
2023-03-24T10:40:45.389Z,9.719436
2023-03-24T10:41:44.313Z,9.719409
2023-03-24T10:42:44.310Z,9.719284
2023-03-24T10:43:44.288Z,9.718834
2023-03-24T10:44:44.297Z,9.719150
2023-03-24T10:45:44.368Z,9.719339
2023-03-24T10:46:44.277Z,9.719176
2023-03-24T10:47:44.323Z,9.719162
2023-03-24T10:48:44.282Z,9.719299
2023-03-24T10:49:44.278Z,9.719199
2023-03-24T10:50:44.278Z,9.719294
2023-03-24T10:51:44.263Z,9.719296
2023-03-24T10:52:44.203Z,9.719285
2023-03-24T10:53:44.221Z,9.719330
2023-03-24T10:54:44.250Z,9.719329
2023-03-24T10:55:44.175Z,9.719271
2023-03-24T10:56:44.189Z,9.719254
2023-03-24T10:57:44.192Z,9.719239
2023-03-24T10:58:44.181Z,9.719270
2023-03-24T10:59:44.197Z,9.719070
2023-03-24T11:00:44.134Z,9.719153
2023-03-24T11:01:44.187Z,9.719284
2023-03-24T11:02:44.242Z,9.719382
2023-03-24T11:03:44.146Z,9.719418
2023-03-24T11:04:44.127Z,9.719294
2023-03-24T11:05:44.075Z,9.719229
2023-03-24T11:06:44.090Z,9.719217
2023-03-24T11:07:44.059Z,9.719256
2023-03-24T11:08:44.125Z,9.719237
2023-03-24T11:09:44.032Z,9.719213
2023-03-24T11:10:44.060Z,9.719205
2023-03-24T11:11:44.031Z,9.719151
2023-03-24T11:12:44.025Z,9.719247
2023-03-24T11:13:44.053Z,9.719314
2023-03-24T11:14:43.996Z,9.719296
2023-03-24T11:15:43.996Z,9.719235
2023-03-24T11:16:44.001Z,9.719179
2023-03-24T11:17:44.050Z,9.719220
2023-03-24T11:18:43.936Z,9.719231
2023-03-24T11:19:43.961Z,9.719308
2023-03-24T11:20:43.948Z,9.719276
2023-03-24T11:21:43.986Z,9.719198
2023-03-24T11:22:43.963Z,9.719159
2023-03-24T11:23:43.986Z,9.719254
2023-03-24T11:24:43.933Z,9.719326
2023-03-24T11:25:43.967Z,9.719303
2023-03-24T11:26:43.931Z,9.719340
2023-03-24T11:27:43.923Z,9.719444
2023-03-24T11:28:43.881Z,9.719450
2023-03-24T11:29:43.868Z,9.719419
2023-03-24T11:30:45.725Z,9.719388
2023-03-24T11:31:44.942Z,9.719653
2023-03-24T11:32:43.875Z,9.719546
2023-03-24T11:33:43.818Z,9.719589
2023-03-24T11:34:43.769Z,9.719495
2023-03-24T11:35:44.957Z,9.719329
2023-03-24T11:36:46.886Z,9.719223
2023-03-24T11:37:44.758Z,9.719344
2023-03-24T11:38:43.774Z,9.719324
2023-03-24T11:39:43.728Z,9.719313
2023-03-24T11:40:43.727Z,9.719249
2023-03-24T11:41:43.720Z,9.719257
2023-03-24T11:42:45.408Z,9.719292
2023-03-24T11:43:44.717Z,9.719539
2023-03-24T11:44:43.758Z,9.719605
2023-03-24T11:45:43.691Z,9.719481
2023-03-24T11:46:43.708Z,9.719576
2023-03-24T11:47:43.723Z,9.719538
2023-03-24T11:48:43.661Z,9.719242
2023-03-24T11:49:43.669Z,9.719204
2023-03-24T11:50:43.645Z,9.719462
2023-03-24T11:51:43.637Z,9.719763
2023-03-24T11:52:43.631Z,9.719889
2023-03-24T11:53:43.605Z,9.719469
2023-03-24T11:54:43.595Z,9.719362
2023-03-24T11:55:43.608Z,9.719345